Time;durP1;ratioP1;P1;durP2;ratioP2;P2;SDS_P1;SDS_P2;PMS_P1;PMS_P2;Temp;Humidity;BMP_temperature;BMP_pressure;BME280_temperature;BME280_humidity;BME280_pressure;Samples;Min_cycle;Max_cycle;Signal;HPM_P1;HPM_P2
2023/07/18 00:00:17;;;;;;;8.82;2.83;;;13.70;99.90;;;;;;5123619;27;20035;-79
2023/07/18 00:02:44;;;;;;;9.70;3.13;;;13.70;99.90;;;;;;5105989;27;20088;-79
2023/07/18 00:05:12;;;;;;;6.20;3.03;;;13.60;99.90;;;;;;5102099;27;20107;-79
2023/07/18 00:07:44;;;;;;;6.15;2.67;;;13.60;99.90;;;;;;5108004;27;20039;-80
2023/07/18 00:10:11;;;;;;;9.60;3.10;;;13.60;99.90;;;;;;5088130;27;20035;-80
2023/07/18 00:12:38;;;;;;;8.02;3.25;;;13.60;99.90;;;;;;5099707;27;20028;-79
2023/07/18 00:15:06;;;;;;;7.90;3.30;;;13.60;99.90;;;;;;5094222;27;20503;-79
2023/07/18 00:17:33;;;;;;;9.57;3.20;;;13.50;99.90;;;;;;5094018;27;20509;-80
2023/07/18 00:20:09;;;;;;;7.82;3.65;;;13.50;99.90;;;;;;5090587;27;20059;-79
2023/07/18 00:22:36;;;;;;;6.40;3.25;;;13.50;99.90;;;;;;5119300;27;20262;-79
2023/07/18 00:25:02;;;;;;;6.43;3.63;;;13.40;99.90;;;;;;5088938;27;20043;-80
2023/07/18 00:27:28;;;;;;;14.88;3.25;;;13.50;99.90;;;;;;5100912;27;20084;-79
2023/07/18 00:29:57;;;;;;;7.75;3.22;;;13.40;99.90;;;;;;5101124;27;20040;-80
2023/07/18 00:32:23;;;;;;;10.02;3.47;;;13.40;99.90;;;;;;5085785;27;20035;-80
2023/07/18 00:34:49;;;;;;;7.05;3.13;;;13.40;99.90;;;;;;5102023;27;20039;-79
2023/07/18 00:37:15;;;;;;;9.13;3.50;;;13.40;99.90;;;;;;5118221;27;20045;-80
2023/07/18 00:39:44;;;;;;;6.40;3.40;;;13.40;99.90;;;;;;5103681;27;20043;-80
2023/07/18 00:42:10;;;;;;;6.20;3.03;;;13.40;99.90;;;;;;5089994;27;20335;-80
2023/07/18 00:44:36;;;;;;;5.55;3.03;;;13.30;99.90;;;;;;5099984;27;20608;-80
2023/07/18 00:47:01;;;;;;;7.50;3.40;;;13.30;99.90;;;;;;5084996;27;20405;-80
2023/07/18 00:49:28;;;;;;;8.05;3.42;;;13.30;99.90;;;;;;5104485;27;20935;-79
2023/07/18 00:51:55;;;;;;;9.80;3.22;;;13.30;99.90;;;;;;5094371;27;20039;-79
2023/07/18 00:54:21;;;;;;;9.40;3.50;;;13.40;99.90;;;;;;5097453;27;20422;-79
2023/07/18 00:56:47;;;;;;;7.85;3.65;;;13.30;99.90;;;;;;5090550;27;20513;-79
2023/07/18 00:59:17;;;;;;;9.38;3.72;;;13.30;99.90;;;;;;5123881;27;20484;-79
2023/07/18 01:01:43;;;;;;;8.90;3.50;;;13.40;99.90;;;;;;5116164;27;20043;-79
2023/07/18 01:04:08;;;;;;;7.20;3.40;;;13.40;99.90;;;;;;5086084;27;20095;-79
2023/07/18 01:06:35;;;;;;;7.85;3.10;;;13.30;99.90;;;;;;5101122;27;20034;-79
2023/07/18 01:09:02;;;;;;;9.93;3.50;;;13.40;99.90;;;;;;5124679;27;20038;-80
2023/07/18 01:11:28;;;;;;;10.38;3.53;;;13.40;99.90;;;;;;5092184;27;20075;-80
2023/07/18 01:13:53;;;;;;;7.00;3.33;;;13.30;99.90;;;;;;5086162;27;20120;-80
2023/07/18 01:16:19;;;;;;;8.95;3.90;;;13.30;99.90;;;;;;5105524;27;20405;-79
2023/07/18 01:18:44;;;;;;;10.48;3.25;;;13.30;99.90;;;;;;5112340;27;20133;-79
2023/07/18 01:21:19;;;;;;;7.22;3.50;;;13.30;99.90;;;;;;5096287;27;20058;-79
2023/07/18 01:23:45;;;;;;;7.90;3.78;;;13.30;99.90;;;;;;5086462;27;20716;-79
2023/07/18 01:26:17;;;;;;;6.68;3.40;;;13.30;99.90;;;;;;5100127;27;20100;-80
2023/07/18 01:28:43;;;;;;;13.65;4.65;;;13.30;99.90;;;;;;5082192;27;20043;-79
2023/07/18 01:31:09;;;;;;;9.27;3.97;;;13.30;99.90;;;;;;5104899;27;20819;-79
2023/07/18 01:33:35;;;;;;;5.45;3.20;;;13.20;99.90;;;;;;5104731;27;20043;-79
2023/07/18 01:36:00;;;;;;;8.57;3.30;;;13.20;99.90;;;;;;5099525;27;20389;-79
2023/07/18 01:38:30;;;;;;;7.75;2.92;;;13.20;99.90;;;;;;5095833;27;20127;-79
2023/07/18 01:40:56;;;;;;;10.50;3.45;;;13.30;99.90;;;;;;5102904;27;20597;-79
2023/07/18 01:43:23;;;;;;;9.00;3.72;;;13.20;99.90;;;;;;5084983;27;20074;-80
2023/07/18 01:45:51;;;;;;;9.63;3.47;;;13.20;99.90;;;;;;5103072;27;20100;-80
2023/07/18 01:48:18;;;;;;;7.43;3.67;;;13.20;99.90;;;;;;5103472;27;20507;-79
2023/07/18 01:50:44;;;;;;;12.85;3.38;;;13.20;99.90;;;;;;5085586;27;20043;-79
2023/07/18 01:53:11;;;;;;;11.18;3.50;;;13.20;99.90;;;;;;5084165;27;20046;-80
2023/07/18 01:55:41;;;;;;;9.75;3.75;;;13.20;99.90;;;;;;5101857;27;20055;-80
2023/07/18 01:58:12;;;;;;;9.15;3.70;;;13.20;99.90;;;;;;5118285;27;20293;-79
2023/07/18 02:00:41;;;;;;;12.60;3.60;;;13.20;99.90;;;;;;5085485;27;20039;-80
2023/07/18 02:03:12;;;;;;;6.20;3.33;;;13.20;99.90;;;;;;5110683;27;20130;-79
2023/07/18 02:05:40;;;;;;;11.25;3.80;;;13.20;99.90;;;;;;5096178;27;20039;-79
2023/07/18 02:08:06;;;;;;;9.70;3.92;;;13.20;99.90;;;;;;5087865;27;20051;-79
2023/07/18 02:10:31;;;;;;;11.52;3.90;;;13.20;99.90;;;;;;5108531;27;20132;-79
2023/07/18 02:12:58;;;;;;;7.55;3.92;;;13.20;99.90;;;;;;5090415;27;20560;-79
2023/07/18 02:15:26;;;;;;;7.13;3.40;;;13.30;99.90;;;;;;5102879;27;20639;-79
2023/07/18 02:17:52;;;;;;;9.60;3.55;;;13.30;99.90;;;;;;5107321;27;20031;-79
2023/07/18 02:20:18;;;;;;;10.85;5.43;;;13.20;99.90;;;;;;5087569;27;20031;-79
2023/07/18 02:22:45;;;;;;;6.63;3.50;;;13.30;99.90;;;;;;5099229;27;20075;-79
2023/07/18 02:25:12;;;;;;;9.93;4.32;;;13.30;99.90;;;;;;5092300;27;20095;-80
2023/07/18 02:27:39;;;;;;;6.82;3.58;;;13.30;99.90;;;;;;5108490;27;20046;-79
2023/07/18 02:30:08;;;;;;;8.25;3.78;;;13.40;99.90;;;;;;5105808;27;20523;-79
2023/07/18 02:32:34;;;;;;;6.65;3.13;;;13.40;99.90;;;;;;5120141;27;20254;-79
2023/07/18 02:35:00;;;;;;;8.40;3.85;;;13.30;99.90;;;;;;5100150;27;20100;-80
2023/07/18 02:37:26;;;;;;;9.45;4.50;;;13.40;99.90;;;;;;5107911;27;20070;-79
2023/07/18 02:39:52;;;;;;;9.77;4.32;;;13.30;99.90;;;;;;5096887;27;20042;-79
2023/07/18 02:42:18;;;;;;;13.55;4.18;;;13.40;99.90;;;;;;5105122;27;20127;-79
2023/07/18 02:44:47;;;;;;;8.77;4.18;;;13.40;99.90;;;;;;5119871;27;20043;-79
2023/07/18 02:47:13;;;;;;;9.50;3.88;;;13.40;99.90;;;;;;5111668;27;20074;-79
2023/07/18 02:49:39;;;;;;;10.85;4.13;;;13.30;99.90;;;;;;5102268;27;20695;-79
2023/07/18 02:52:06;;;;;;;11.27;4.88;;;13.40;99.90;;;;;;5119177;27;20042;-80
2023/07/18 02:54:32;;;;;;;8.82;4.03;;;13.30;99.90;;;;;;5113936;27;20159;-80
2023/07/18 02:56:58;;;;;;;8.57;4.15;;;13.30;99.90;;;;;;5104937;27;20031;-80
2023/07/18 02:59:25;;;;;;;10.43;4.80;;;13.30;99.90;;;;;;5099828;27;20105;-79
2023/07/18 03:01:56;;;;;;;10.00;3.70;;;13.20;99.90;;;;;;5110745;27;20062;-79
2023/07/18 03:04:22;;;;;;;12.35;4.25;;;13.20;99.90;;;;;;5106228;27;20028;-80
2023/07/18 03:06:51;;;;;;;9.18;4.32;;;13.20;99.90;;;;;;5092936;27;20112;-79
2023/07/18 03:09:21;;;;;;;13.43;5.03;;;13.20;99.90;;;;;;5087690;27;20168;-79
2023/07/18 03:11:49;;;;;;;11.70;4.60;;;13.20;99.90;;;;;;5087303;27;20046;-79
2023/07/18 03:14:16;;;;;;;10.15;4.28;;;13.20;99.90;;;;;;5105720;27;20575;-79
2023/07/18 03:16:42;;;;;;;10.98;3.92;;;13.10;99.90;;;;;;5096415;27;20042;-79
2023/07/18 03:19:10;;;;;;;10.00;4.20;;;13.10;99.90;;;;;;5120368;27;20031;-79
2023/07/18 03:21:35;;;;;;;8.45;3.92;;;13.20;99.90;;;;;;5118968;27;20091;-79
2023/07/18 03:24:01;;;;;;;12.85;4.63;;;13.10;99.90;;;;;;5121008;27;20122;-79
2023/07/18 03:26:27;;;;;;;11.75;4.18;;;13.10;99.90;;;;;;5102240;27;20123;-79
2023/07/18 03:28:55;;;;;;;10.38;3.88;;;13.10;99.90;;;;;;5088487;27;20127;-79
2023/07/18 03:31:21;;;;;;;7.88;4.47;;;13.10;99.90;;;;;;5090615;27;20041;-79
2023/07/18 03:33:47;;;;;;;9.23;4.72;;;13.10;99.90;;;;;;5107766;27;20035;-79
2023/07/18 03:36:12;;;;;;;15.05;4.93;;;13.10;99.90;;;;;;5121948;27;20040;-79
2023/07/18 03:38:38;;;;;;;11.05;4.15;;;13.10;99.90;;;;;;5091082;27;20122;-79
2023/07/18 03:41:03;;;;;;;8.13;4.07;;;13.10;99.90;;;;;;5120611;27;20164;-80
2023/07/18 03:43:31;;;;;;;9.70;5.05;;;13.10;99.90;;;;;;5106135;27;20375;-79
2023/07/18 03:45:57;;;;;;;6.53;4.13;;;13.00;99.90;;;;;;5091820;27;20431;-79
2023/07/18 03:48:26;;;;;;;10.30;4.15;;;13.10;99.90;;;;;;5090199;27;20054;-79
2023/07/18 03:50:52;;;;;;;12.05;4.38;;;13.10;99.90;;;;;;5108357;27;20035;-79
2023/07/18 03:53:18;;;;;;;6.07;4.15;;;13.10;99.90;;;;;;5108603;27;20041;-79
2023/07/18 03:55:43;;;;;;;11.75;4.32;;;13.10;99.90;;;;;;5123213;27;20428;-80
2023/07/18 03:58:09;;;;;;;9.82;4.40;;;13.10;99.90;;;;;;5091928;27;20039;-79
2023/07/18 04:00:37;;;;;;;9.30;4.28;;;13.20;99.90;;;;;;5095290;27;20133;-79
2023/07/18 04:03:04;;;;;;;10.98;4.30;;;13.10;99.90;;;;;;5104418;27;20429;-80
2023/07/18 04:05:29;;;;;;;11.52;4.70;;;13.20;99.90;;;;;;5105901;27;20035;-79
2023/07/18 04:07:55;;;;;;;16.17;4.43;;;13.20;99.90;;;;;;5087392;27;20490;-79
2023/07/18 04:10:21;;;;;;;7.97;4.32;;;13.20;99.90;;;;;;5089064;27;20401;-79
2023/07/18 04:12:47;;;;;;;11.38;4.30;;;13.30;99.90;;;;;;5105379;27;20118;-80
2023/07/18 04:15:14;;;;;;;11.38;4.85;;;13.30;99.90;;;;;;5122111;27;20058;-80
2023/07/18 04:17:40;;;;;;;9.65;4.35;;;13.30;99.90;;;;;;5086681;27;20039;-80
2023/07/18 04:20:06;;;;;;;11.93;3.78;;;13.40;99.90;;;;;;5089916;27;20115;-79
2023/07/18 04:22:32;;;;;;;13.15;4.85;;;13.40;99.90;;;;;;5116737;27;20481;-79
2023/07/18 04:24:58;;;;;;;8.10;3.97;;;13.40;99.90;;;;;;5116706;27;20575;-79
2023/07/18 04:27:26;;;;;;;9.93;5.00;;;13.50;99.90;;;;;;5119345;27;20050;-79
2023/07/18 04:29:52;;;;;;;9.45;4.75;;;13.60;99.90;;;;;;5103165;27;20039;-79
2023/07/18 04:32:18;;;;;;;13.60;5.43;;;13.60;99.90;;;;;;5117203;27;20051;-79
2023/07/18 04:34:44;;;;;;;7.35;4.35;;;13.70;99.90;;;;;;5080508;27;20049;-79
2023/07/18 04:37:10;;;;;;;9.60;4.32;;;13.80;99.90;;;;;;5091694;27;20031;-79
2023/07/18 04:39:35;;;;;;;10.65;4.40;;;13.90;99.90;;;;;;5099200;27;20359;-80
2023/07/18 04:42:01;;;;;;;13.48;5.15;;;14.00;99.90;;;;;;5111080;27;20116;-79
2023/07/18 04:44:27;;;;;;;10.45;4.85;;;14.10;99.90;;;;;;5107616;27;20046;-79
2023/07/18 04:46:53;;;;;;;12.85;4.90;;;14.20;99.90;;;;;;5085384;27;20050;-79
2023/07/18 04:49:19;;;;;;;9.65;4.10;;;14.20;99.90;;;;;;5118225;27;20035;-80
2023/07/18 04:51:46;;;;;;;11.35;4.25;;;14.30;99.90;;;;;;5113596;27;20103;-79
2023/07/18 04:54:14;;;;;;;12.43;5.10;;;14.30;99.90;;;;;;5111024;27;20027;-79
2023/07/18 04:56:40;;;;;;;8.45;3.85;;;14.40;99.90;;;;;;5103506;27;20393;-79
2023/07/18 04:59:06;;;;;;;10.88;4.88;;;14.40;99.90;;;;;;5100142;27;20050;-80
2023/07/18 05:01:31;;;;;;;12.60;4.40;;;14.40;99.90;;;;;;5092145;27;20040;-79
2023/07/18 05:03:59;;;;;;;7.38;3.85;;;14.50;99.90;;;;;;5105844;27;20072;-79
2023/07/18 05:06:25;;;;;;;10.25;4.30;;;14.50;99.90;;;;;;5117509;27;20270;-79
2023/07/18 05:08:51;;;;;;;8.57;4.10;;;14.50;99.90;;;;;;5101987;27;20443;-79
2023/07/18 05:11:17;;;;;;;9.70;4.22;;;14.50;99.90;;;;;;5122833;27;20572;-79
2023/07/18 05:13:43;;;;;;;9.50;4.80;;;14.50;99.90;;;;;;5082239;27;20047;-79
2023/07/18 05:16:09;;;;;;;9.82;4.18;;;14.60;99.90;;;;;;5113542;27;20050;-79
2023/07/18 05:18:34;;;;;;;12.48;5.07;;;14.70;99.90;;;;;;5089303;27;20047;-79
2023/07/18 05:21:00;;;;;;;12.82;4.47;;;14.90;99.90;;;;;;5102126;27;20132;-79
2023/07/18 05:23:26;;;;;;;9.50;4.10;;;15.00;99.90;;;;;;5117227;27;20535;-80
2023/07/18 05:25:51;;;;;;;9.20;3.92;;;15.00;99.90;;;;;;5122777;27;20035;-79
2023/07/18 05:28:17;;;;;;;9.95;4.40;;;15.30;99.90;;;;;;5095655;27;20489;-79
2023/07/18 05:30:43;;;;;;;11.48;4.68;;;15.50;99.90;;;;;;5109955;27;20045;-79
2023/07/18 05:33:08;;;;;;;6.90;3.92;;;15.50;99.90;;;;;;5114731;27;20035;-79
2023/07/18 05:35:34;;;;;;;8.23;3.95;;;15.70;99.90;;;;;;5094446;28;20402;-79
2023/07/18 05:38:02;;;;;;;8.05;3.95;;;15.90;99.90;;;;;;5086573;27;20112;-79
2023/07/18 05:40:27;;;;;;;9.93;4.05;;;16.10;99.90;;;;;;5105986;27;20135;-79
2023/07/18 05:42:54;;;;;;;10.15;4.30;;;16.20;99.90;;;;;;5092891;28;20161;-80
2023/07/18 05:45:19;;;;;;;12.00;4.40;;;16.20;99.90;;;;;;5100577;28;20287;-79
2023/07/18 05:47:45;;;;;;;8.00;4.00;;;16.20;99.90;;;;;;5101837;28;20047;-79
2023/07/18 05:50:11;;;;;;;8.90;4.05;;;16.30;99.90;;;;;;5096822;28;20032;-79
2023/07/18 05:52:38;;;;;;;9.07;4.43;;;16.40;99.90;;;;;;5095144;28;20063;-79
2023/07/18 05:55:05;;;;;;;10.40;4.05;;;16.30;99.90;;;;;;5101801;28;20036;-79
2023/07/18 05:57:30;;;;;;;10.23;3.97;;;16.20;99.90;;;;;;5095736;28;20046;-79
2023/07/18 05:59:56;;;;;;;12.25;4.47;;;16.20;99.90;;;;;;5089197;28;20043;-79
2023/07/18 06:02:22;;;;;;;13.70;4.30;;;16.10;99.90;;;;;;5101020;28;20512;-79
2023/07/18 06:04:48;;;;;;;11.23;3.67;;;16.10;99.90;;;;;;5100865;28;20394;-79
2023/07/18 06:07:15;;;;;;;12.00;4.10;;;16.40;99.90;;;;;;5095220;28;20043;-79
2023/07/18 06:09:42;;;;;;;11.13;4.70;;;16.70;99.90;;;;;;5107790;28;22366;-79
2023/07/18 06:12:08;;;;;;;8.15;4.30;;;16.90;99.90;;;;;;5077693;28;20031;-79
2023/07/18 06:14:34;;;;;;;9.85;4.05;;;17.00;99.90;;;;;;5090103;28;20036;-79
2023/07/18 06:17:00;;;;;;;13.32;4.07;;;17.00;99.90;;;;;;5109899;27;20034;-79
2023/07/18 06:19:28;;;;;;;8.70;3.85;;;17.10;99.90;;;;;;5109182;27;20142;-79
2023/07/18 06:21:54;;;;;;;9.63;3.95;;;17.10;99.90;;;;;;5083052;27;20052;-79
2023/07/18 06:24:20;;;;;;;10.35;4.38;;;17.40;99.90;;;;;;5090710;28;20059;-79
2023/07/18 06:26:48;;;;;;;14.82;4.03;;;17.50;99.90;;;;;;5122120;27;20070;-79
2023/07/18 06:29:18;;;;;;;12.40;3.72;;;17.50;99.90;;;;;;5088095;27;20461;-79
2023/07/18 06:31:48;;;;;;;7.60;3.70;;;17.40;99.90;;;;;;5102024;27;20035;-79
2023/07/18 06:34:17;;;;;;;13.27;3.95;;;17.60;99.90;;;;;;5103966;27;20051;-80
2023/07/18 06:36:44;;;;;;;12.07;4.30;;;17.70;99.90;;;;;;5109878;27;21005;-80
2023/07/18 06:39:13;;;;;;;7.15;3.90;;;18.00;99.90;;;;;;5104270;27;20078;-79
2023/07/18 06:41:40;;;;;;;9.52;3.97;;;17.90;99.90;;;;;;5081446;27;20039;-80
2023/07/18 06:44:07;;;;;;;10.50;3.50;;;17.90;99.90;;;;;;5099289;27;20072;-80
2023/07/18 06:46:33;;;;;;;7.30;3.42;;;18.30;99.90;;;;;;5092525;27;20155;-79
2023/07/18 06:48:59;;;;;;;10.95;4.55;;;18.40;99.90;;;;;;5089303;28;20122;-79
2023/07/18 06:51:24;;;;;;;12.10;4.60;;;18.20;99.90;;;;;;5099506;27;20609;-80
2023/07/18 06:53:52;;;;;;;9.60;3.70;;;18.10;99.90;;;;;;5099902;27;20523;-79
2023/07/18 06:56:17;;;;;;;8.27;3.97;;;18.00;99.90;;;;;;5105647;27;20424;-79
2023/07/18 06:58:43;;;;;;;8.52;3.60;;;18.10;99.90;;;;;;5086621;28;20046;-79
2023/07/18 07:01:10;;;;;;;10.68;4.03;;;18.20;99.90;;;;;;5106379;27;20047;-80
2023/07/18 07:03:36;;;;;;;9.50;3.67;;;18.30;99.90;;;;;;5104988;27;20528;-80
2023/07/18 07:06:08;;;;;;;7.47;3.47;;;18.40;99.90;;;;;;5106351;27;20036;-80
2023/07/18 07:08:33;;;;;;;12.63;4.22;;;18.60;99.90;;;;;;5123552;27;20047;-80
2023/07/18 07:11:04;;;;;;;12.90;3.72;;;18.70;99.90;;;;;;5106995;27;20080;-80
2023/07/18 07:13:30;;;;;;;8.85;3.47;;;18.60;99.90;;;;;;5092007;27;20074;-80
2023/07/18 07:15:56;;;;;;;10.23;3.78;;;18.50;99.90;;;;;;5099856;27;20486;-79
2023/07/18 07:18:21;;;;;;;10.65;3.88;;;18.40;99.90;;;;;;5103064;27;20046;-79
2023/07/18 07:20:47;;;;;;;9.15;3.38;;;18.60;99.90;;;;;;5111407;27;20074;-80
2023/07/18 07:23:13;;;;;;;10.95;3.50;;;18.70;99.90;;;;;;5103774;27;20035;-79
2023/07/18 07:25:39;;;;;;;10.13;3.70;;;18.80;99.90;;;;;;5103583;27;20538;-80
2023/07/18 07:28:04;;;;;;;7.68;3.40;;;18.70;99.90;;;;;;5099043;27;20043;-79
2023/07/18 07:30:31;;;;;;;9.80;3.33;;;18.90;99.90;;;;;;5104402;27;20046;-80
2023/07/18 07:32:56;;;;;;;13.63;3.15;;;18.70;99.90;;;;;;5084556;27;20054;-79
2023/07/18 07:35:22;;;;;;;12.30;3.85;;;18.80;99.90;;;;;;5101622;27;20031;-79
2023/07/18 07:37:50;;;;;;;9.63;3.40;;;19.10;99.90;;;;;;5089796;27;20458;-79
2023/07/18 07:40:16;;;;;;;10.88;4.03;;;18.90;99.90;;;;;;5092036;27;20043;-80
2023/07/18 07:42:43;;;;;;;14.52;3.85;;;19.10;99.90;;;;;;5117439;27;20086;-79
2023/07/18 07:45:10;;;;;;;9.60;3.53;;;19.30;99.90;;;;;;5108418;27;20039;-80
2023/07/18 07:47:36;;;;;;;10.60;3.05;;;19.60;99.90;;;;;;5108250;27;20122;-80
2023/07/18 07:50:03;;;;;;;9.90;3.85;;;19.70;99.90;;;;;;5095218;27;20397;-80
2023/07/18 07:52:29;;;;;;;13.23;3.60;;;19.60;99.90;;;;;;5117367;27;20034;-79
2023/07/18 07:54:55;;;;;;;12.27;4.05;;;19.90;99.90;;;;;;5109106;27;20528;-80
2023/07/18 07:57:22;;;;;;;10.40;3.35;;;19.70;99.90;;;;;;5094904;27;20489;-80
2023/07/18 07:59:48;;;;;;;10.50;3.60;;;19.50;99.90;;;;;;5119515;27;20066;-80
2023/07/18 08:02:14;;;;;;;9.00;3.08;;;19.60;99.90;;;;;;5105123;27;20541;-80
2023/07/18 08:04:41;;;;;;;7.80;3.13;;;19.80;99.90;;;;;;5093484;27;20096;-80
2023/07/18 08:07:10;;;;;;;10.35;4.03;;;19.60;99.90;;;;;;5103648;27;20035;-80
2023/07/18 08:09:36;;;;;;;7.82;3.60;;;19.80;99.90;;;;;;5125259;27;20087;-80
2023/07/18 08:12:03;;;;;;;11.40;3.65;;;19.60;99.90;;;;;;5092495;27;20054;-80
2023/07/18 08:14:29;;;;;;;14.10;4.38;;;20.10;99.90;;;;;;5101364;27;20050;-80
2023/07/18 08:16:55;;;;;;;10.30;3.65;;;20.20;99.90;;;;;;5086269;27;20123;-80
2023/07/18 08:19:22;;;;;;;9.68;3.45;;;20.30;99.90;;;;;;5123016;27;20121;-80
2023/07/18 08:21:48;;;;;;;13.45;3.90;;;20.50;99.90;;;;;;5089261;27;20041;-80
2023/07/18 08:24:14;;;;;;;8.27;3.80;;;20.20;99.90;;;;;;5104621;27;20508;-80
2023/07/18 08:26:40;;;;;;;9.27;3.50;;;19.90;99.90;;;;;;5120698;27;20039;-80
2023/07/18 08:29:06;;;;;;;10.65;3.30;;;19.90;99.90;;;;;;5104000;27;20035;-79
2023/07/18 08:31:32;;;;;;;9.50;2.90;;;19.90;99.90;;;;;;5117653;27;20478;-80
2023/07/18 08:33:57;;;;;;;7.80;3.17;;;19.80;99.90;;;;;;5118645;27;20039;-79
2023/07/18 08:36:23;;;;;;;11.13;3.05;;;19.90;99.90;;;;;;5105334;27;20035;-80
2023/07/18 08:38:49;;;;;;;7.30;2.75;;;20.30;99.90;;;;;;5088441;27;20039;-80
2023/07/18 08:41:17;;;;;;;8.65;2.85;;;20.50;99.90;;;;;;5114859;27;20115;-80
2023/07/18 08:43:45;;;;;;;11.50;3.05;;;20.40;99.90;;;;;;5112842;27;20540;-80
2023/07/18 08:46:16;;;;;;;7.63;3.17;;;20.50;99.90;;;;;;5106950;27;20050;-80
2023/07/18 08:48:43;;;;;;;8.07;2.58;;;20.70;99.90;;;;;;5112489;27;20040;-80
2023/07/18 08:51:13;;;;;;;6.13;2.70;;;20.40;99.90;;;;;;5087071;27;20437;-80
2023/07/18 08:53:39;;;;;;;8.40;2.78;;;21.10;99.90;;;;;;5095409;27;20035;-80
2023/07/18 08:56:08;;;;;;;6.53;2.40;;;21.20;99.90;;;;;;5106536;27;20034;-80
2023/07/18 08:58:36;;;;;;;7.38;2.45;;;21.50;99.90;;;;;;5103033;27;20071;-80
2023/07/18 09:01:06;;;;;;;7.30;3.00;;;21.40;99.90;;;;;;5108821;27;20123;-80
2023/07/18 09:03:32;;;;;;;9.38;2.50;;;21.70;99.90;;;;;;5109503;27;20460;-80
2023/07/18 09:06:02;;;;;;;7.82;2.47;;;21.70;99.90;;;;;;5090390;28;20124;-79
2023/07/18 09:08:31;;;;;;;7.82;2.10;;;22.00;99.90;;;;;;5103719;27;20043;-80
2023/07/18 09:11:03;;;;;;;5.30;2.20;;;22.10;99.90;;;;;;5097203;27;20051;-80
2023/07/18 09:13:38;;;;;;;5.63;2.20;;;22.00;99.90;;;;;;5085194;28;20372;-80
2023/07/18 09:16:13;;;;;;;4.38;2.03;;;22.70;99.90;;;;;;5088954;28;20122;-80
2023/07/18 09:18:42;;;;;;;4.20;1.95;;;22.50;99.90;;;;;;5102409;27;20153;-80
2023/07/18 09:21:12;;;;;;;6.97;2.08;;;22.20;99.90;;;;;;5104901;27;20047;-80
2023/07/18 09:23:39;;;;;;;9.27;2.60;;;22.30;99.90;;;;;;5107831;27;20035;-80
2023/07/18 09:26:14;;;;;;;6.07;2.33;;;22.30;99.90;;;;;;5107919;27;20088;-80
2023/07/18 09:28:40;;;;;;;5.25;1.90;;;22.70;99.90;;;;;;5096833;27;20520;-80
2023/07/18 09:31:19;;;;;;;5.15;1.80;;;23.00;99.90;;;;;;5104475;27;20246;-80
2023/07/18 09:33:46;;;;;;;6.30;2.25;;;22.70;99.90;;;;;;5107694;27;20031;-80
2023/07/18 09:36:24;;;;;;;6.68;2.45;;;22.70;99.90;;;;;;5101263;27;20108;-80
2023/07/18 09:38:54;;;;;;;10.07;2.20;;;22.70;99.90;;;;;;5102446;27;20414;-80
2023/07/18 09:41:22;;;;;;;6.10;2.30;;;22.60;99.90;;;;;;5097936;27;20175;-80
2023/07/18 09:43:49;;;;;;;5.57;2.22;;;22.30;99.90;;;;;;5073728;28;20087;-79
2023/07/18 09:46:16;;;;;;;9.77;2.78;;;22.20;99.90;;;;;;5087271;28;20051;-80
2023/07/18 09:48:44;;;;;;;9.57;2.25;;;22.10;99.90;;;;;;5078964;28;20115;-80
2023/07/18 09:51:20;;;;;;;6.00;2.35;;;22.40;99.90;;;;;;5099798;28;20075;-80
2023/07/18 09:53:47;;;;;;;7.65;2.42;;;22.80;99.90;;;;;;5072392;28;20143;-80
2023/07/18 09:56:17;;;;;;;5.05;1.98;;;22.80;99.90;;;;;;5079574;28;20035;-80
2023/07/18 09:58:44;;;;;;;7.75;2.25;;;22.90;99.90;;;;;;5096172;28;20031;-80
2023/07/18 10:01:19;;;;;;;5.93;2.20;;;23.20;99.90;;;;;;5097308;28;20502;-80
2023/07/18 10:03:46;;;;;;;;;;;23.50;99.90;;;;;;5072468;28;20478;-80
2023/07/18 10:06:13;;;;;;;6.32;2.10;;;23.90;99.90;;;;;;5096600;28;19951;-80
2023/07/18 10:08:40;;;;;;;9.20;2.70;;;23.70;99.90;;;;;;5096708;28;20126;-80
2023/07/18 10:11:11;;;;;;;4.60;1.90;;;23.20;99.90;;;;;;5097864;28;20534;-80
2023/07/18 10:13:55;;;;;;;3.75;1.75;;;23.50;99.90;;;;;;5075722;28;20051;-80
2023/07/18 10:16:22;;;;;;;6.15;1.73;;;23.50;99.90;;;;;;5088547;28;20487;-80
2023/07/18 10:18:54;;;;;;;4.45;1.70;;;24.10;99.90;;;;;;5082528;28;20127;-80
2023/07/18 10:21:34;;;;;;;4.80;1.80;;;24.50;99.90;;;;;;5073431;28;20049;-80
2023/07/18 10:24:21;;;;;;;4.30;1.50;;;24.00;99.90;;;;;;5079883;28;20059;-80
2023/07/18 10:26:48;;;;;;;6.35;1.70;;;23.90;99.90;;;;;;5077759;28;20097;-80
2023/07/18 10:29:17;;;;;;;4.13;1.50;;;23.90;99.90;;;;;;5113987;27;20028;-80
2023/07/18 10:31:42;;;;;;;6.07;1.90;;;24.00;99.90;;;;;;5093744;28;20036;-80
2023/07/18 10:34:11;;;;;;;4.38;1.90;;;23.70;99.90;;;;;;5093372;28;20101;-80
2023/07/18 10:36:38;;;;;;;7.70;1.92;;;23.30;99.90;;;;;;5092116;28;20032;-80
2023/07/18 10:39:14;;;;;;;5.43;1.48;;;23.00;99.90;;;;;;5088653;28;20277;-81
2023/07/18 10:41:44;;;;;;;6.75;2.33;;;22.60;99.90;;;;;;5066406;28;20044;-80
2023/07/18 10:44:16;;;;;;;6.35;1.52;;;23.30;99.90;;;;;;5101686;27;20497;-81
2023/07/18 10:46:42;;;;;;;2.60;1.35;;;23.80;99.90;;;;;;5086959;27;20479;-80
2023/07/18 10:49:07;;;;;;;5.53;1.65;;;23.90;99.90;;;;;;5115750;27;20448;-81
2023/07/18 10:51:34;;;;;;;4.20;1.40;;;24.20;27.10;;;;;;5113909;27;20035;-80
2023/07/18 10:54:00;;;;;;;7.32;1.67;;;24.30;99.90;;;;;;5104845;27;20495;-80
2023/07/18 10:56:27;;;;;;;4.63;1.60;;;24.80;99.90;;;;;;5106515;27;20031;-80
2023/07/18 10:58:54;;;;;;;5.45;1.58;;;24.90;1.00;;;;;;5104521;27;20039;-81
2023/07/18 11:01:25;;;;;;;4.68;1.40;;;24.90;1.00;;;;;;5106068;27;20382;-80
2023/07/18 11:03:53;;;;;;;4.60;1.85;;;25.00;99.90;;;;;;5090498;27;20042;-80
2023/07/18 11:06:21;;;;;;;7.07;1.67;;;25.40;1.00;;;;;;5102871;27;20035;-81
2023/07/18 11:08:48;;;;;;;6.07;1.60;;;25.10;99.90;;;;;;5085657;28;20050;-80
2023/07/18 11:11:15;;;;;;;5.40;1.48;;;24.70;45.00;;;;;;5103561;27;20608;-80
2023/07/18 11:13:43;;;;;;;2.78;1.27;;;25.40;1.00;;;;;;5091512;27;20114;-80
2023/07/18 11:16:14;;;;;;;4.95;1.42;;;25.60;99.90;;;;;;5107131;27;20027;-80
2023/07/18 11:18:46;;;;;;;4.45;1.50;;;25.80;99.90;;;;;;5103367;27;20135;-80
2023/07/18 11:21:13;;;;;;;3.63;1.50;;;25.10;1.00;;;;;;5113568;27;20504;-80
2023/07/18 11:23:40;;;;;;;5.57;1.27;;;24.70;1.00;;;;;;5090025;28;20066;-80
2023/07/18 11:26:14;;;;;;;4.20;1.40;;;24.90;99.90;;;;;;5085288;27;20497;-80
2023/07/18 11:28:41;;;;;;;6.20;1.60;;;24.00;99.90;;;;;;5098350;27;20065;-80
2023/07/18 11:31:26;;;;;;;4.43;1.27;;;23.90;1.00;;;;;;5090587;27;20159;-80
2023/07/18 11:33:57;;;;;;;7.13;2.00;;;23.40;99.90;;;;;;5106082;27;20044;-80
2023/07/18 11:36:36;;;;;;;6.63;1.60;;;23.00;1.00;;;;;;5115340;27;20227;-80
2023/07/18 11:39:06;;;;;;;5.97;1.58;;;22.90;15.20;;;;;;5108764;27;20043;-81
2023/07/18 11:41:39;;;;;;;7.28;1.73;;;22.60;99.90;;;;;;5099256;27;20047;-80
2023/07/18 11:44:07;;;;;;;6.45;1.48;;;22.50;99.90;;;;;;5095840;27;20060;-80
2023/07/18 11:46:43;;;;;;;4.45;1.67;;;22.30;1.00;;;;;;5114824;27;20044;-80
2023/07/18 11:49:12;;;;;;;3.40;1.70;;;22.00;99.90;;;;;;5093570;27;20032;-80
2023/07/18 11:51:40;;;;;;;6.10;1.98;;;21.80;99.90;;;;;;5113896;27;20126;-80
2023/07/18 11:54:09;;;;;;;4.85;1.95;;;21.80;99.90;;;;;;5088905;27;20028;-81
2023/07/18 11:56:35;;;;;;;6.15;1.42;;;21.60;99.90;;;;;;5086890;27;20039;-80
2023/07/18 11:59:01;;;;;;;4.18;2.03;;;21.80;99.90;;;;;;5106955;27;20435;-81
2023/07/18 12:01:28;;;;;;;8.18;1.85;;;21.80;99.90;;;;;;5099271;27;20082;-80
2023/07/18 12:03:57;;;;;;;4.80;1.42;;;21.90;99.90;;;;;;5106762;27;20355;-80
2023/07/18 12:06:23;;;;;;;4.57;1.55;;;22.00;99.90;;;;;;5108528;27;20134;-80
2023/07/18 12:08:49;;;;;;;3.97;1.35;;;22.20;99.90;;;;;;5103491;27;20037;-81
2023/07/18 12:11:15;;;;;;;6.57;1.50;;;22.20;99.90;;;;;;5102573;27;20060;-80
2023/07/18 12:13:41;;;;;;;4.88;1.75;;;22.40;99.90;;;;;;5085041;28;20036;-80
2023/07/18 12:16:07;;;;;;;6.32;1.73;;;22.50;1.00;;;;;;5093439;27;20031;-80
2023/07/18 12:18:33;;;;;;;1.90;1.20;;;22.80;99.90;;;;;;5084318;27;20142;-80
2023/07/18 12:20:59;;;;;;;5.32;1.85;;;23.00;99.90;;;;;;5111169;27;20050;-81
2023/07/18 12:23:25;;;;;;;5.18;1.60;;;23.10;1.00;;;;;;5085016;27;20040;-80
2023/07/18 12:25:55;;;;;;;5.57;1.83;;;23.40;99.90;;;;;;5116095;27;20427;-80
2023/07/18 12:28:20;;;;;;;5.30;1.65;;;23.20;2.40;;;;;;5106220;27;20058;-80
2023/07/18 12:30:46;;;;;;;7.78;2.45;;;23.40;99.90;;;;;;5100584;27;20048;-81
2023/07/18 12:33:12;;;;;;;5.13;1.75;;;23.90;99.90;;;;;;5092731;27;20036;-80
2023/07/18 12:35:38;;;;;;;7.65;2.10;;;24.00;1.00;;;;;;5088947;27;20131;-80
2023/07/18 12:38:06;;;;;;;7.22;2.08;;;23.90;99.90;;;;;;5090547;27;20420;-80
2023/07/18 12:40:32;;;;;;;4.25;1.98;;;23.60;1.00;;;;;;5090166;27;20051;-80
2023/07/18 12:42:58;;;;;;;4.45;1.95;;;23.80;45.70;;;;;;5094861;28;20055;-81
2023/07/18 12:45:24;;;;;;;5.22;2.05;;;23.90;99.90;;;;;;5104956;27;20048;-80